Terminal Aerodrome Forecast
Issued by NWS

Home | Current Version | Previous Version | Text Only | Print | Product List | Glossary On
Versions: 1 2 3 4 5 6 7 8 9 10 11 12
000
FTUS41 KBTV 250500
TAFMSS
TAF
KMSS 250523Z 2506/2606 VRB03KT P6SM SKC
     FM250900 05004KT P6SM BKN120
     FM251500 05009KT P6SM BKN090 BKN150
     FM260400 05007KT 6SM -RA OVC050=

USA.gov is the U.S. government's official web portal to all federal, state and local government web resources and services.